createdAt,value
2019-04-16T00:01:24.721Z,1.70
2019-04-16T00:03:58.647Z,1.70
2019-04-16T00:06:49.831Z,1.70
2019-04-16T00:09:34.045Z,1.60
2019-04-16T00:12:27.622Z,1.40
2019-04-16T00:14:57.419Z,1.40
2019-04-16T00:17:26.504Z,1.30
2019-04-16T00:19:55.542Z,1.40
2019-04-16T00:22:33.541Z,1.50
2019-04-16T00:25:02.597Z,1.50
2019-04-16T00:27:31.873Z,1.50
2019-04-16T00:30:04.124Z,1.50
2019-04-16T00:32:31.890Z,1.50
2019-04-16T00:35:01.058Z,1.40
2019-04-16T00:37:30.331Z,1.50
2019-04-16T00:39:59.666Z,1.40
2019-04-16T00:42:28.707Z,1.40
2019-04-16T00:44:58.038Z,1.30
2019-04-16T00:47:27.107Z,1.30
2019-04-16T00:49:58.884Z,1.30
2019-04-16T00:52:26.766Z,1.20
2019-04-16T00:54:55.969Z,1.20
2019-04-16T00:57:25.007Z,1.20
2019-04-16T00:59:56.125Z,1.20
2019-04-16T01:02:24.883Z,1.10
2019-04-16T01:04:54.071Z,1.00
2019-04-16T01:07:23.139Z,1.00
2019-04-16T01:09:52.072Z,1.00
2019-04-16T01:12:21.303Z,1.00
2019-04-16T01:14:50.345Z,1.00
2019-04-16T01:17:19.295Z,0.90
2019-04-16T01:19:48.232Z,0.90
2019-04-16T01:22:17.191Z,0.90
2019-04-16T01:24:46.114Z,0.90
2019-04-16T01:27:15.914Z,0.80
2019-04-16T01:29:44.820Z,0.80
2019-04-16T01:32:24.289Z,0.70
2019-04-16T01:35:11.641Z,0.70
2019-04-16T01:37:59.607Z,0.60
2019-04-16T01:40:34.563Z,0.60
2019-04-16T01:43:03.599Z,0.60
2019-04-16T01:45:32.595Z,0.60
2019-04-16T01:48:01.470Z,0.60
2019-04-16T01:50:30.397Z,0.60
2019-04-16T01:52:59.607Z,0.60
2019-04-16T01:55:28.798Z,0.50
2019-04-16T01:57:59.667Z,0.50
2019-04-16T02:00:28.553Z,0.40
2019-04-16T02:02:59.228Z,0.20
2019-04-16T02:05:28.239Z,0.20
2019-04-16T02:07:59.299Z,0.30
2019-04-16T02:10:28.073Z,0.30
2019-04-16T02:12:57.081Z,0.50
2019-04-16T02:15:26.016Z,0.40
2019-04-16T02:17:55.479Z,0.30
2019-04-16T02:20:25.974Z,0.10
2019-04-16T02:22:55.356Z,0.10
2019-04-16T02:25:24.288Z,0.00
2019-04-16T02:27:54.259Z,0.00
2019-04-16T02:30:23.828Z,0.00
2019-04-16T02:32:53.044Z,0.00
2019-04-16T02:35:21.959Z,0.00
2019-04-16T02:37:50.946Z,0.00
2019-04-16T02:40:20.649Z,0.00
2019-04-16T02:42:49.966Z,-0.10
2019-04-16T02:45:23.054Z,-0.20
2019-04-16T02:47:49.755Z,-0.20
2019-04-16T02:50:32.441Z,-0.10
2019-04-16T02:53:24.550Z,0.00
2019-04-16T02:56:08.867Z,-0.10
2019-04-16T02:58:44.128Z,-0.20
2019-04-16T03:01:31.066Z,-0.30
2019-04-16T03:04:04.694Z,-0.30
2019-04-16T03:06:33.682Z,-0.30
2019-04-16T03:09:05.580Z,-0.40
2019-04-16T03:11:33.582Z,-0.50
2019-04-16T03:14:02.555Z,-0.50
2019-04-16T03:16:41.917Z,-0.50
2019-04-16T03:19:18.862Z,-0.50
2019-04-16T03:21:44.611Z,-0.50
2019-04-16T03:24:13.802Z,-0.50
2019-04-16T03:26:44.360Z,-0.50
2019-04-16T03:29:13.338Z,-0.50
2019-04-16T03:31:42.591Z,-0.50
2019-04-16T03:34:11.543Z,-0.50
2019-04-16T03:36:40.596Z,-0.50
2019-04-16T03:39:13.184Z,-0.60
2019-04-16T03:41:40.482Z,-0.60
2019-04-16T03:44:09.544Z,-0.60
2019-04-16T03:46:40.096Z,-0.60
2019-04-16T03:49:09.270Z,-0.60
2019-04-16T03:51:38.235Z,-0.60
2019-04-16T03:54:07.557Z,-0.60
2019-04-16T03:56:37.130Z,-0.50
2019-04-16T03:59:10.755Z,-0.50
2019-04-16T04:01:36.895Z,-0.50
2019-04-16T04:04:06.270Z,-0.60
2019-04-16T04:06:36.473Z,-0.70
2019-04-16T04:09:06.796Z,-0.70
2019-04-16T04:11:40.970Z,-0.70
2019-04-16T04:14:06.843Z,-0.80
2019-04-16T04:16:36.135Z,-0.80
2019-04-16T04:19:05.424Z,-0.80
2019-04-16T04:21:34.366Z,-0.70
2019-04-16T04:24:03.303Z,-0.70
2019-04-16T04:26:32.251Z,-0.70
2019-04-16T04:29:01.171Z,-0.70
2019-04-16T04:31:32.317Z,-0.70
2019-04-16T04:34:00.871Z,-0.70
2019-04-16T04:36:29.835Z,-0.60
2019-04-16T04:38:59.094Z,-0.50
2019-04-16T04:41:27.967Z,-0.50
2019-04-16T04:43:56.891Z,-0.50
2019-04-16T04:46:26.219Z,-0.40
2019-04-16T04:48:58.473Z,-0.40
2019-04-16T04:51:25.844Z,-0.30
2019-04-16T04:53:57.443Z,-0.30
2019-04-16T04:56:27.962Z,-0.10
2019-04-16T04:58:57.799Z,-0.10
2019-04-16T05:01:27.111Z,0.00
2019-04-16T05:04:18.918Z,0.10
2019-04-16T05:06:46.410Z,0.20
2019-04-16T05:09:15.663Z,0.30
2019-04-16T05:11:47.417Z,0.60
2019-04-16T05:14:15.353Z,0.80
2019-04-16T05:16:44.239Z,0.90
2019-04-16T05:19:14.809Z,1.10
2019-04-16T05:21:44.357Z,1.20
2019-04-16T05:24:13.660Z,1.30
2019-04-16T05:26:42.602Z,1.30
2019-04-16T05:29:16.996Z,1.50
2019-04-16T05:31:44.454Z,1.60
2019-04-16T05:34:16.991Z,1.70
2019-04-16T05:36:47.737Z,1.80
2019-04-16T05:39:15.029Z,2.00
2019-04-16T05:41:44.066Z,2.10
2019-04-16T05:44:13.123Z,2.30
2019-04-16T05:46:46.271Z,2.50
2019-04-16T05:49:12.611Z,2.70
2019-04-16T05:51:41.955Z,2.90
2019-04-16T05:54:27.644Z,3.00
2019-04-16T05:56:58.307Z,3.20
2019-04-16T05:59:27.267Z,3.30
2019-04-16T06:02:18.792Z,3.50
2019-04-16T06:04:46.050Z,3.70
2019-04-16T06:07:14.978Z,3.90
2019-04-16T06:09:44.422Z,4.00
2019-04-16T06:12:14.411Z,4.10
2019-04-16T06:14:54.290Z,4.20
2019-04-16T06:17:36.276Z,4.40
2019-04-16T06:20:19.008Z,4.50
2019-04-16T06:23:07.389Z,4.60
2019-04-16T06:25:52.594Z,4.70
2019-04-16T06:28:35.403Z,4.80
2019-04-16T06:31:19.117Z,4.90
2019-04-16T06:33:54.050Z,5.00
2019-04-16T06:36:40.594Z,5.20
2019-04-16T06:39:41.090Z,5.30
2019-04-16T06:42:28.150Z,5.50
2019-04-16T06:45:01.630Z,5.60
2019-04-16T06:47:45.718Z,5.80
2019-04-16T06:50:32.261Z,6.00
2019-04-16T06:53:14.366Z,6.10
2019-04-16T06:56:01.298Z,6.30
2019-04-16T06:58:50.975Z,6.40
2019-04-16T07:01:28.814Z,6.60
2019-04-16T07:04:00.802Z,6.80
2019-04-16T07:06:43.936Z,6.90
2019-04-16T07:09:41.449Z,7.10
2019-04-16T07:12:17.714Z,7.50
2019-04-16T07:14:48.341Z,8.10
2019-04-16T07:17:18.751Z,9.20
2019-04-16T07:19:48.093Z,10.10
2019-04-16T07:22:20.937Z,12.00
2019-04-16T07:24:50.586Z,14.30
2019-04-16T07:27:21.055Z,16.60
2019-04-16T07:30:05.132Z,18.30
2019-04-16T07:32:51.925Z,20.20
2019-04-16T07:35:48.906Z,22.10
2019-04-16T07:38:28.223Z,23.10
2019-04-16T07:41:19.639Z,23.60
2019-04-16T07:44:10.493Z,23.10
2019-04-16T07:46:48.347Z,23.80
2019-04-16T07:49:35.003Z,23.60
2019-04-16T07:52:22.798Z,24.10
2019-04-16T07:55:13.903Z,24.40
2019-04-16T07:57:42.826Z,24.80
2019-04-16T08:00:12.782Z,24.50
2019-04-16T08:02:41.794Z,24.80
2019-04-16T08:05:11.179Z,24.60
2019-04-16T08:07:40.119Z,24.10
2019-04-16T08:10:09.480Z,23.80
2019-04-16T08:12:42.187Z,23.80
2019-04-16T08:15:14.577Z,24.60
2019-04-16T08:17:42.179Z,24.40
2019-04-16T08:20:11.251Z,24.40
2019-04-16T08:22:40.293Z,24.90
2019-04-16T08:25:09.402Z,25.20
2019-04-16T08:27:38.359Z,24.60
2019-04-16T08:30:09.873Z,24.50
2019-04-16T08:32:38.785Z,24.10
2019-04-16T08:35:07.862Z,24.30
2019-04-16T08:37:48.357Z,24.30
2019-04-16T08:40:08.802Z,24.80
2019-04-16T08:42:44.617Z,24.70
2019-04-16T08:45:10.818Z,24.90
2019-04-16T08:47:44.634Z,24.90
2019-04-16T08:50:12.170Z,25.10
2019-04-16T08:52:41.670Z,25.70
2019-04-16T08:55:11.798Z,26.30
2019-04-16T08:57:40.843Z,26.00
2019-04-16T09:00:15.143Z,26.10
2019-04-16T09:02:43.526Z,25.50
2019-04-16T09:05:12.943Z,24.60
2019-04-16T09:07:42.341Z,25.10
2019-04-16T09:10:18.374Z,25.50
2019-04-16T09:12:47.565Z,25.40
2019-04-16T09:15:27.176Z,25.00
2019-04-16T09:18:10.488Z,24.90
2019-04-16T09:20:41.454Z,25.00
2019-04-16T09:23:10.381Z,24.10
2019-04-16T09:26:13.043Z,24.10
2019-04-16T09:29:08.416Z,23.90
2019-04-16T09:31:56.925Z,24.00
2019-04-16T09:34:43.563Z,23.70
2019-04-16T09:37:28.649Z,23.40
2019-04-16T09:40:17.669Z,22.90
2019-04-16T09:42:44.803Z,22.40
2019-04-16T09:45:19.513Z,22.10
2019-04-16T09:47:48.426Z,22.10
2019-04-16T09:50:17.466Z,22.30
2019-04-16T09:52:46.719Z,21.80
2019-04-16T09:55:18.867Z,22.00
2019-04-16T09:57:46.231Z,21.80
2019-04-16T10:00:20.445Z,21.50
2019-04-16T10:02:55.051Z,21.10
2019-04-16T10:05:23.396Z,21.40
2019-04-16T10:07:52.246Z,21.50
2019-04-16T10:10:24.255Z,20.70
2019-04-16T10:12:51.835Z,19.40
2019-04-16T10:15:20.765Z,18.70
2019-04-16T10:17:49.682Z,18.00
2019-04-16T10:20:18.763Z,17.70
2019-04-16T10:22:47.666Z,17.50
2019-04-16T10:25:16.834Z,17.50
2019-04-16T10:27:54.619Z,17.60
2019-04-16T10:30:37.842Z,17.90
2019-04-16T10:33:07.054Z,18.10
2019-04-16T10:35:36.257Z,18.30
2019-04-16T10:38:26.118Z,18.30
2019-04-16T10:41:03.478Z,18.40
2019-04-16T10:43:49.527Z,18.30
2019-04-16T10:46:27.253Z,18.40
2019-04-16T10:49:05.012Z,18.40
2019-04-16T10:51:40.093Z,18.30
2019-04-16T10:54:38.129Z,18.20
2019-04-16T10:57:23.035Z,18.30
2019-04-16T11:00:09.673Z,18.20
2019-04-16T11:02:46.574Z,18.30
2019-04-16T11:05:40.816Z,18.30
2019-04-16T11:08:11.301Z,18.40
2019-04-16T11:10:40.291Z,18.30
2019-04-16T11:13:12.489Z,18.10
2019-04-16T11:15:41.586Z,18.10
2019-04-16T11:18:10.616Z,18.30
2019-04-16T11:20:39.757Z,18.40
2019-04-16T11:23:08.700Z,18.40
2019-04-16T11:25:37.670Z,18.40
2019-04-16T11:28:07.004Z,18.30
2019-04-16T11:30:38.979Z,18.30
2019-04-16T11:33:08.372Z,18.30
2019-04-16T11:35:37.941Z,18.60
2019-04-16T11:38:07.006Z,18.70
2019-04-16T11:40:36.006Z,18.70
2019-04-16T11:43:05.107Z,18.80
2019-04-16T11:45:34.214Z,18.90
2019-04-16T11:48:03.260Z,18.70
2019-04-16T11:50:35.862Z,18.60
2019-04-16T11:53:03.374Z,18.50
2019-04-16T11:55:32.714Z,18.50
2019-04-16T11:58:02.365Z,18.50
2019-04-16T12:00:42.341Z,18.40
2019-04-16T12:03:24.046Z,18.40
2019-04-16T12:06:03.900Z,18.60
2019-04-16T12:08:44.357Z,18.70
2019-04-16T12:11:23.203Z,18.70
2019-04-16T12:14:04.144Z,18.70
2019-04-16T12:16:47.689Z,18.60
2019-04-16T12:19:34.402Z,18.70
2019-04-16T12:22:26.312Z,18.60
2019-04-16T12:25:20.274Z,18.50
2019-04-16T12:28:26.695Z,18.50
2019-04-16T12:31:10.017Z,18.60
2019-04-16T12:33:53.462Z,18.50
2019-04-16T12:36:53.370Z,18.30
2019-04-16T12:39:47.455Z,18.30
2019-04-16T12:42:41.179Z,18.20
2019-04-16T12:45:25.131Z,18.10
2019-04-16T12:48:09.766Z,18.10
2019-04-16T12:51:00.332Z,18.00
2019-04-16T12:54:06.739Z,17.90
2019-04-16T12:56:49.664Z,17.90
2019-04-16T12:59:25.742Z,18.10
2019-04-16T13:02:15.730Z,18.20
2019-04-16T13:04:50.475Z,18.20
2019-04-16T13:07:23.718Z,18.00
2019-04-16T13:10:04.719Z,17.90
2019-04-16T13:12:44.223Z,18.00
2019-04-16T13:15:18.554Z,18.10
2019-04-16T13:18:18.594Z,18.10
2019-04-16T13:21:11.328Z,18.00
2019-04-16T13:23:44.085Z,17.90
2019-04-16T13:26:27.538Z,17.60
2019-04-16T13:28:56.482Z,17.50
2019-04-16T13:31:25.746Z,17.50
2019-04-16T13:33:54.744Z,17.50
2019-04-16T13:36:26.930Z,17.50
2019-04-16T13:38:59.802Z,17.50
2019-04-16T13:41:28.863Z,17.40
2019-04-16T13:44:02.235Z,17.40
2019-04-16T13:46:34.611Z,17.40
2019-04-16T13:49:07.763Z,17.50
2019-04-16T13:51:37.054Z,17.50
2019-04-16T13:54:11.891Z,17.50
2019-04-16T13:56:50.146Z,17.50
2019-04-16T13:59:36.302Z,17.50
2019-04-16T14:02:20.807Z,17.60
2019-04-16T14:04:49.805Z,17.40
2019-04-16T14:07:19.129Z,17.30
2019-04-16T14:09:48.486Z,17.20
2019-04-16T14:12:17.431Z,17.20
2019-04-16T14:14:49.386Z,17.30
2019-04-16T14:17:20.722Z,17.30
2019-04-16T14:19:49.803Z,17.40
2019-04-16T14:22:21.679Z,17.30
2019-04-16T14:24:49.474Z,17.20
2019-04-16T14:27:18.530Z,17.10
2019-04-16T14:29:47.634Z,17.10
2019-04-16T14:32:16.982Z,17.10
2019-04-16T14:35:14.323Z,17.10
2019-04-16T14:37:43.295Z,17.10
2019-04-16T14:40:16.687Z,17.10
2019-04-16T14:42:45.766Z,17.10
2019-04-16T14:45:57.104Z,17.10
2019-04-16T14:48:11.039Z,17.20
2019-04-16T14:50:39.989Z,17.10
2019-04-16T14:53:09.134Z,17.10
2019-04-16T14:55:59.729Z,17.10
2019-04-16T14:58:55.610Z,17.00
2019-04-16T15:01:36.466Z,17.00
2019-04-16T15:04:18.318Z,16.90
2019-04-16T15:06:54.766Z,16.90
2019-04-16T15:09:42.884Z,16.80
2019-04-16T15:12:34.736Z,16.80
2019-04-16T15:15:04.737Z,16.70
2019-04-16T15:17:45.314Z,16.70
2019-04-16T15:20:51.822Z,16.70
2019-04-16T15:23:49.495Z,16.60
2019-04-16T15:26:55.970Z,16.60
2019-04-16T15:29:34.055Z,16.60
2019-04-16T15:32:22.442Z,16.60
2019-04-16T15:34:51.474Z,16.60
2019-04-16T15:37:45.556Z,16.50
2019-04-16T15:40:25.983Z,16.50
2019-04-16T15:43:19.742Z,16.40
2019-04-16T15:46:25.301Z,16.40
2019-04-16T15:49:02.739Z,16.40
2019-04-16T15:52:09.558Z,16.30
2019-04-16T15:54:52.732Z,16.30
2019-04-16T15:57:37.805Z,16.20
2019-04-16T16:00:38.554Z,16.10
2019-04-16T16:03:25.193Z,16.10
2019-04-16T16:06:02.019Z,16.00
2019-04-16T16:08:38.946Z,16.00
2019-04-16T16:11:17.196Z,15.90
2019-04-16T16:13:46.733Z,15.90
2019-04-16T16:16:18.102Z,15.90
2019-04-16T16:18:47.170Z,15.90
2019-04-16T16:21:16.148Z,15.80
2019-04-16T16:23:45.067Z,15.80
2019-04-16T16:26:14.010Z,15.70
2019-04-16T16:28:42.929Z,15.70
2019-04-16T16:31:11.839Z,15.60
2019-04-16T16:33:40.850Z,15.60
2019-04-16T16:36:09.786Z,15.50
2019-04-16T16:38:38.927Z,15.50
2019-04-16T16:41:07.838Z,15.50
2019-04-16T16:43:36.999Z,15.40
2019-04-16T16:46:31.058Z,15.30
2019-04-16T16:49:00.455Z,15.20
2019-04-16T16:51:29.406Z,15.10
2019-04-16T16:54:13.706Z,15.10
2019-04-16T16:56:46.241Z,14.90
2019-04-16T16:59:49.675Z,14.90
2019-04-16T17:02:32.446Z,14.90
2019-04-16T17:05:01.805Z,14.90
2019-04-16T17:07:31.522Z,14.70
2019-04-16T17:10:00.437Z,14.60
2019-04-16T17:12:29.347Z,14.40
2019-04-16T17:14:58.306Z,14.30
2019-04-16T17:17:27.254Z,14.20
2019-04-16T17:19:56.215Z,14.00
2019-04-16T17:22:25.141Z,14.00
2019-04-16T17:24:54.557Z,13.80
2019-04-16T17:27:24.083Z,13.70
2019-04-16T17:29:53.153Z,13.70
2019-04-16T17:32:22.464Z,13.50
2019-04-16T17:34:51.511Z,13.40
2019-04-16T17:37:25.973Z,13.30
2019-04-16T17:40:01.218Z,13.20
2019-04-16T17:42:37.024Z,13.10
2019-04-16T17:45:38.646Z,13.00
2019-04-16T17:48:26.746Z,12.90
2019-04-16T17:51:23.908Z,12.80
2019-04-16T17:53:57.665Z,12.60
2019-04-16T17:56:57.974Z,12.20
2019-04-16T17:59:32.293Z,12.00
2019-04-16T18:02:19.234Z,11.80
2019-04-16T18:05:10.358Z,11.50
2019-04-16T18:07:57.070Z,11.40
2019-04-16T18:10:43.846Z,11.20
2019-04-16T18:13:32.909Z,10.90
2019-04-16T18:16:07.667Z,10.70
2019-04-16T18:18:43.272Z,10.50
2019-04-16T18:21:46.447Z,10.40
2019-04-16T18:24:34.530Z,10.30
2019-04-16T18:27:21.598Z,10.10
2019-04-16T18:29:56.762Z,10.00
2019-04-16T18:32:56.318Z,9.90
2019-04-16T18:35:30.359Z,9.70
2019-04-16T18:38:22.201Z,9.40
2019-04-16T18:41:03.954Z,9.40
2019-04-16T18:44:04.930Z,9.20
2019-04-16T18:46:53.219Z,9.10
2019-04-16T18:49:23.775Z,9.00
2019-04-16T18:51:52.882Z,8.90
2019-04-16T18:54:22.119Z,8.80
2019-04-16T18:56:51.391Z,8.80
2019-04-16T18:59:20.382Z,8.70
2019-04-16T19:01:52.462Z,8.70
2019-04-16T19:04:21.798Z,8.70
2019-04-16T19:06:50.887Z,8.70
2019-04-16T19:09:21.045Z,8.70
2019-04-16T19:11:50.346Z,8.70
2019-04-16T19:14:19.638Z,8.70
2019-04-16T19:16:48.609Z,8.70
2019-04-16T19:19:17.556Z,8.60
2019-04-16T19:21:52.179Z,8.50
2019-04-16T19:24:20.274Z,8.40
2019-04-16T19:26:49.218Z,8.30
2019-04-16T19:29:18.151Z,8.30
2019-04-16T19:31:47.179Z,8.10
2019-04-16T19:34:16.129Z,8.10
2019-04-16T19:36:45.234Z,8.00
2019-04-16T19:39:15.457Z,7.90
2019-04-16T19:41:44.707Z,7.90
2019-04-16T19:44:13.655Z,7.80
2019-04-16T19:46:45.971Z,7.70
2019-04-16T19:49:13.326Z,7.70
2019-04-16T19:51:42.203Z,7.60
2019-04-16T19:54:11.154Z,7.50
2019-04-16T19:56:40.178Z,7.40
2019-04-16T19:59:09.422Z,7.30
2019-04-16T20:01:38.355Z,7.20
2019-04-16T20:04:10.687Z,7.20
2019-04-16T20:06:38.243Z,7.10
2019-04-16T20:09:08.483Z,7.10
2019-04-16T20:11:37.643Z,7.00
2019-04-16T20:14:06.726Z,6.90
2019-04-16T20:16:35.680Z,6.80
2019-04-16T20:19:04.682Z,6.80
2019-04-16T20:21:37.399Z,6.70
2019-04-16T20:24:04.299Z,6.60
2019-04-16T20:26:33.565Z,6.50
2019-04-16T20:29:02.874Z,6.40
2019-04-16T20:31:31.879Z,6.30
2019-04-16T20:34:00.803Z,6.30
2019-04-16T20:36:29.758Z,6.20
2019-04-16T20:38:58.649Z,6.10
2019-04-16T20:41:27.561Z,6.10
2019-04-16T20:43:56.516Z,6.00
2019-04-16T20:46:25.425Z,5.90
2019-04-16T20:49:06.776Z,5.80
2019-04-16T20:51:26.593Z,5.80
2019-04-16T20:53:55.714Z,5.70
2019-04-16T20:56:24.914Z,5.80
2019-04-16T20:58:53.988Z,5.70
2019-04-16T21:01:34.009Z,5.70
2019-04-16T21:04:04.981Z,5.60
2019-04-16T21:06:27.643Z,5.50
2019-04-16T21:08:58.223Z,5.40
2019-04-16T21:11:27.132Z,5.30
2019-04-16T21:13:56.357Z,5.30
2019-04-16T21:16:25.434Z,5.20
2019-04-16T21:18:54.441Z,5.10
2019-04-16T21:21:24.385Z,5.10
2019-04-16T21:23:53.701Z,5.00
2019-04-16T21:26:22.776Z,4.90
2019-04-16T21:29:05.630Z,4.90
2019-04-16T21:31:42.169Z,4.90
2019-04-16T21:34:17.463Z,4.90
2019-04-16T21:37:09.955Z,4.80
2019-04-16T21:39:47.191Z,4.80
2019-04-16T21:42:16.741Z,4.80
2019-04-16T21:44:45.751Z,4.80
2019-04-16T21:47:14.671Z,4.80
2019-04-16T21:49:45.840Z,4.90
2019-04-16T21:52:14.663Z,4.90
2019-04-16T21:54:43.918Z,4.80
2019-04-16T21:57:14.322Z,4.80
2019-04-16T21:59:43.780Z,4.80
2019-04-16T22:02:38.009Z,4.80
2019-04-16T22:05:07.405Z,4.90
2019-04-16T22:07:36.403Z,4.90
2019-04-16T22:10:05.511Z,5.10
2019-04-16T22:12:34.513Z,5.20
2019-04-16T22:15:03.984Z,5.40
2019-04-16T22:17:35.869Z,5.60
2019-04-16T22:20:04.961Z,5.60
2019-04-16T22:22:34.279Z,5.70
2019-04-16T22:25:03.222Z,5.80
2019-04-16T22:27:32.182Z,5.90
2019-04-16T22:30:01.062Z,5.90
2019-04-16T22:32:30.974Z,5.90
2019-04-16T22:35:00.246Z,5.90
2019-04-16T22:37:29.230Z,6.00
2019-04-16T22:40:22.873Z,6.00
2019-04-16T22:43:08.587Z,5.90
2019-04-16T22:45:52.052Z,5.90
2019-04-16T22:48:19.627Z,5.80
2019-04-16T22:50:48.854Z,5.60
2019-04-16T22:53:18.024Z,5.50
2019-04-16T22:55:47.244Z,5.40
2019-04-16T22:58:25.986Z,5.30
2019-04-16T23:01:01.436Z,5.30
2019-04-16T23:03:30.334Z,5.30
2019-04-16T23:06:00.957Z,5.20
2019-04-16T23:08:29.798Z,5.20
2019-04-16T23:10:58.969Z,5.20
2019-04-16T23:13:32.311Z,5.10
2019-04-16T23:15:58.949Z,5.10
2019-04-16T23:18:28.338Z,5.00
2019-04-16T23:20:57.395Z,5.00
2019-04-16T23:23:26.594Z,5.00
2019-04-16T23:25:59.046Z,4.90
2019-04-16T23:28:26.499Z,4.80
2019-04-16T23:30:55.682Z,4.80
2019-04-16T23:33:25.009Z,4.70
2019-04-16T23:35:53.918Z,4.70
2019-04-16T23:38:22.855Z,4.60
2019-04-16T23:40:51.806Z,4.60
2019-04-16T23:43:38.732Z,4.50
2019-04-16T23:46:25.726Z,4.50
2019-04-16T23:49:08.639Z,4.40
2019-04-16T23:51:41.897Z,4.20
2019-04-16T23:54:17.319Z,4.20
2019-04-16T23:57:02.456Z,4.10
2019-04-16T23:59:42.547Z,4.10
